Time;durP1;ratioP1;P1;durP2;ratioP2;P2;SDS_P1;SDS_P2;PMS_P1;PMS_P2;Temp;Humidity;BMP_temperature;BMP_pressure;BME280_temperature;BME280_humidity;BME280_pressure;Samples;Min_cycle;Max_cycle;Signal;HPM_P1;HPM_P2
2021/12/29 00:02:25;;;;;;;1.53;1.00;;;-2.00;99.90;;;;;;4977971;28;20730;-92
2021/12/29 00:04:57;;;;;;;2.13;1.00;;;-2.00;99.90;;;;;;4978380;28;20276;-92
2021/12/29 00:07:29;;;;;;;1.73;1.00;;;-2.20;99.90;;;;;;4977925;28;20210;-93
2021/12/29 00:10:01;;;;;;;1.37;0.90;;;-2.30;99.90;;;;;;4989883;28;20666;-93
2021/12/29 00:12:39;;;;;;;2.63;0.80;;;-2.40;99.90;;;;;;4997129;28;20234;-92
2021/12/29 00:15:11;;;;;;;2.43;1.13;;;-2.50;99.90;;;;;;5000004;28;20226;-92
2021/12/29 00:17:45;;;;;;;1.00;0.80;;;-2.50;99.90;;;;;;4995878;28;20248;-92
2021/12/29 00:20:18;;;;;;;3.47;0.73;;;-2.60;99.90;;;;;;4999595;28;20300;-91
2021/12/29 00:22:50;;;;;;;1.03;0.90;;;-2.70;99.90;;;;;;5001824;28;20256;-92
2021/12/29 00:25:23;;;;;;;1.90;1.00;;;-2.70;99.90;;;;;;5003349;28;20641;-92
2021/12/29 00:27:58;;;;;;;1.50;0.90;;;-2.70;99.90;;;;;;5003537;28;20202;-94
2021/12/29 00:30:30;;;;;;;1.23;0.80;;;-2.70;99.90;;;;;;5001560;28;20219;-93
2021/12/29 00:33:04;;;;;;;2.43;0.87;;;-2.80;99.90;;;;;;4994329;28;20239;-94
2021/12/29 00:35:37;;;;;;;1.00;0.90;;;-2.80;99.90;;;;;;4999801;28;20257;-89
2021/12/29 00:38:10;;;;;;;2.33;1.03;;;-2.80;99.90;;;;;;4999784;28;20206;-93
2021/12/29 00:40:42;;;;;;;1.33;0.90;;;-2.90;99.90;;;;;;5000111;28;20205;-93
2021/12/29 00:43:16;;;;;;;2.63;1.17;;;-2.90;99.90;;;;;;4995801;28;20242;-91
2021/12/29 00:45:47;;;;;;;1.23;1.00;;;-2.90;99.90;;;;;;4993075;28;20246;-93
2021/12/29 00:48:21;;;;;;;1.37;1.10;;;-2.80;99.90;;;;;;4998117;28;20273;-92
2021/12/29 00:50:52;;;;;;;1.70;1.10;;;-2.90;99.90;;;;;;4997302;28;20207;-91
2021/12/29 00:53:24;;;;;;;2.50;1.10;;;-3.00;99.90;;;;;;4992805;28;20242;-92
2021/12/29 00:55:55;;;;;;;1.50;0.90;;;-3.00;99.90;;;;;;4995034;28;20223;-92
2021/12/29 00:58:27;;;;;;;1.63;1.33;;;-3.00;99.90;;;;;;4995025;28;20219;-90
2021/12/29 01:00:59;;;;;;;1.40;1.17;;;-3.00;99.90;;;;;;4995207;28;20207;-91
2021/12/29 01:03:33;;;;;;;1.70;1.00;;;-2.90;99.90;;;;;;4989611;28;20210;-92
2021/12/29 01:06:06;;;;;;;1.60;1.30;;;-2.90;99.90;;;;;;4987023;28;20234;-93
2021/12/29 01:08:41;;;;;;;2.17;1.33;;;-2.90;99.90;;;;;;4990096;28;20200;-91
2021/12/29 01:11:15;;;;;;;3.70;2.23;;;-2.90;99.90;;;;;;4982203;28;20253;-92
2021/12/29 01:13:48;;;;;;;4.70;2.00;;;-2.80;99.90;;;;;;4985504;28;20206;-92
2021/12/29 01:16:39;;;;;;;4.07;1.83;;;-2.80;99.90;;;;;;4982095;28;20211;-93
2021/12/29 01:19:14;;;;;;;3.00;1.97;;;-2.80;99.90;;;;;;4988067;28;20591;-93
2021/12/29 01:21:49;;;;;;;4.27;2.20;;;-2.80;99.90;;;;;;5003053;28;20221;-94
2021/12/29 01:24:21;;;;;;;6.23;2.30;;;-2.70;99.90;;;;;;5005569;28;20198;-92
2021/12/29 01:26:53;;;;;;;4.27;2.03;;;-2.70;99.90;;;;;;4991146;28;20219;-93
2021/12/29 01:29:26;;;;;;;2.93;2.07;;;-2.70;99.90;;;;;;4982269;28;20235;-94
2021/12/29 01:31:59;;;;;;;3.47;1.97;;;-2.60;99.90;;;;;;5001459;28;20298;-91
2021/12/29 01:34:32;;;;;;;3.03;2.27;;;-2.60;99.90;;;;;;5004667;28;20210;-91
2021/12/29 01:37:04;;;;;;;5.37;2.63;;;-2.50;99.90;;;;;;5007124;28;20214;-91
2021/12/29 01:39:37;;;;;;;4.50;2.60;;;-2.50;99.90;;;;;;5006265;28;20207;-91
2021/12/29 01:42:08;;;;;;;3.90;2.57;;;-2.50;99.90;;;;;;5006428;28;20656;-92
2021/12/29 01:44:40;;;;;;;6.20;2.70;;;-2.50;99.90;;;;;;4986915;28;20235;-92
2021/12/29 01:47:15;;;;;;;4.47;2.77;;;-2.50;99.90;;;;;;4982709;28;20219;-93
2021/12/29 01:49:53;;;;;;;6.83;2.90;;;-2.50;99.90;;;;;;5001783;28;20199;-91
2021/12/29 01:52:28;;;;;;;4.37;2.93;;;-2.50;99.90;;;;;;4999880;28;20234;-92
2021/12/29 01:54:59;;;;;;;9.57;3.37;;;-2.50;99.90;;;;;;5004205;28;20209;-92
2021/12/29 01:57:34;;;;;;;4.50;3.30;;;-2.50;99.90;;;;;;4998379;28;20214;-91
2021/12/29 02:00:09;;;;;;;5.37;3.00;;;-2.50;99.90;;;;;;5001368;28;20237;-93
2021/12/29 02:02:41;;;;;;;5.60;3.70;;;-2.50;99.90;;;;;;5004086;28;20198;-92
2021/12/29 02:05:15;;;;;;;5.07;3.10;;;-2.60;99.90;;;;;;4999996;28;20689;-91
2021/12/29 02:07:48;;;;;;;5.50;3.30;;;-2.60;99.90;;;;;;5000184;28;20281;-93
2021/12/29 02:10:20;;;;;;;4.77;2.83;;;-2.60;99.90;;;;;;5003077;28;20542;-92
2021/12/29 02:12:52;;;;;;;7.20;3.60;;;-2.60;99.90;;;;;;5004734;28;20683;-91
2021/12/29 02:15:24;;;;;;;5.20;3.20;;;-2.50;99.90;;;;;;5017941;28;20297;-92
2021/12/29 02:17:56;;;;;;;4.90;3.30;;;-2.60;99.90;;;;;;5017720;28;20206;-92
2021/12/29 02:20:29;;;;;;;6.87;3.87;;;-2.60;99.90;;;;;;5018307;28;20232;-91
2021/12/29 02:23:12;;;;;;;6.53;3.60;;;-2.50;99.90;;;;;;5017343;28;20513;-90
2021/12/29 02:25:51;;;;;;;7.67;3.43;;;-2.60;99.90;;;;;;5020991;28;20209;-91
2021/12/29 02:28:28;;;;;;;6.23;3.63;;;-2.60;99.90;;;;;;5015998;28;20646;-91
2021/12/29 02:31:00;;;;;;;5.33;3.70;;;-2.60;99.90;;;;;;5015451;28;20215;-92
2021/12/29 02:33:31;;;;;;;8.00;3.63;;;-2.60;99.90;;;;;;5021133;28;20260;-92
2021/12/29 02:36:06;;;;;;;7.83;3.73;;;-2.60;99.90;;;;;;5019289;28;20963;-91
2021/12/29 02:38:45;;;;;;;6.50;4.10;;;-2.60;99.90;;;;;;5021105;28;20241;-92
2021/12/29 02:41:18;;;;;;;7.03;3.57;;;-2.60;99.90;;;;;;5019467;28;20605;-93
2021/12/29 02:43:57;;;;;;;6.23;3.63;;;-2.60;99.90;;;;;;5020107;28;20240;-93
2021/12/29 02:46:29;;;;;;;6.80;4.10;;;-2.60;99.90;;;;;;5021499;28;20205;-93
2021/12/29 02:49:02;;;;;;;6.53;3.70;;;-2.60;99.90;;;;;;5021566;28;20294;-92
2021/12/29 02:51:36;;;;;;;6.13;3.50;;;-2.70;99.90;;;;;;5025093;28;20210;-92
2021/12/29 02:54:10;;;;;;;6.77;3.47;;;-2.60;99.90;;;;;;5031586;28;20360;-92
2021/12/29 02:56:41;;;;;;;4.97;3.50;;;-2.70;99.90;;;;;;5034224;28;20197;-92
2021/12/29 02:59:13;;;;;;;7.23;3.57;;;-2.70;99.90;;;;;;5036458;28;20210;-93
2021/12/29 03:01:47;;;;;;;6.93;3.60;;;-2.70;99.90;;;;;;5033675;28;20207;-93
2021/12/29 03:04:19;;;;;;;6.70;3.20;;;-2.70;99.90;;;;;;5035467;28;20216;-92
2021/12/29 03:06:52;;;;;;;8.13;3.73;;;-2.70;99.90;;;;;;5025876;28;20202;-92
2021/12/29 03:09:24;;;;;;;7.40;4.43;;;-2.70;99.90;;;;;;5024257;28;20579;-92
2021/12/29 03:11:57;;;;;;;8.60;4.80;;;-2.70;99.90;;;;;;5025153;28;20205;-91
2021/12/29 03:14:29;;;;;;;9.47;5.03;;;-2.80;99.90;;;;;;5006889;28;20270;-93
2021/12/29 03:17:01;;;;;;;13.10;6.03;;;-2.80;99.90;;;;;;5004397;28;20222;-91
2021/12/29 03:19:32;;;;;;;10.33;5.50;;;-2.90;99.90;;;;;;5008996;28;20206;-92
2021/12/29 03:22:06;;;;;;;11.73;5.83;;;-2.90;99.90;;;;;;5005528;28;20210;-92
2021/12/29 03:24:39;;;;;;;19.93;8.60;;;-2.90;99.90;;;;;;5002310;28;20202;-92
2021/12/29 03:27:12;;;;;;;10.37;4.70;;;-2.90;99.90;;;;;;5003450;28;20218;-93
2021/12/29 03:29:43;;;;;;;12.37;5.87;;;-3.00;99.90;;;;;;5001309;28;20293;-92
2021/12/29 03:32:22;;;;;;;12.50;5.70;;;-3.00;99.90;;;;;;5004159;28;20233;-93
2021/12/29 03:34:54;;;;;;;18.57;7.60;;;-3.00;99.90;;;;;;5004534;28;20305;-92
2021/12/29 03:37:27;;;;;;;10.20;5.50;;;-3.00;99.90;;;;;;5004948;28;20268;-92
2021/12/29 03:39:58;;;;;;;14.47;6.33;;;-3.00;99.90;;;;;;4999978;28;20210;-92
2021/12/29 03:42:30;;;;;;;12.57;5.10;;;-2.90;99.90;;;;;;5001377;28;20262;-93
2021/12/29 03:45:02;;;;;;;5.77;3.90;;;-2.90;99.90;;;;;;5002654;28;20238;-93
2021/12/29 03:47:36;;;;;;;7.00;4.17;;;-2.80;99.90;;;;;;5001790;28;20225;-92
2021/12/29 03:50:11;;;;;;;7.87;4.87;;;-2.80;99.90;;;;;;5003240;28;20226;-93
2021/12/29 03:52:45;;;;;;;9.63;5.43;;;-2.80;99.90;;;;;;5003712;28;20249;-92
2021/12/29 03:55:20;;;;;;;8.33;4.53;;;-2.80;99.90;;;;;;5000406;28;20215;-92
2021/12/29 03:57:52;;;;;;;6.30;4.10;;;-2.80;99.90;;;;;;5000914;28;20701;-92
2021/12/29 04:00:24;;;;;;;8.13;4.37;;;-2.80;99.90;;;;;;5004975;28;20206;-92
2021/12/29 04:02:56;;;;;;;7.00;4.77;;;-2.80;99.90;;;;;;5003217;28;20305;-92
2021/12/29 04:05:28;;;;;;;7.63;4.57;;;-2.90;99.90;;;;;;5003214;28;20241;-93
2021/12/29 04:08:04;;;;;;;7.20;5.13;;;-2.90;99.90;;;;;;5001522;28;20229;-92
2021/12/29 04:10:35;;;;;;;10.33;4.90;;;-2.80;99.90;;;;;;4995796;28;20207;-92
2021/12/29 04:13:07;;;;;;;9.63;5.10;;;-2.80;99.90;;;;;;4992608;28;20304;-91
2021/12/29 04:15:38;;;;;;;8.50;4.60;;;-2.90;99.90;;;;;;5020207;28;20264;-90
2021/12/29 04:18:25;;;;;;;7.77;4.10;;;-2.80;99.90;;;;;;5019350;28;20225;-92
2021/12/29 04:21:00;;;;;;;8.00;5.03;;;-2.80;99.90;;;;;;5022687;28;20209;-92
2021/12/29 04:23:39;;;;;;;9.77;5.03;;;-2.80;99.90;;;;;;5022441;28;20283;-93
2021/12/29 04:26:10;;;;;;;6.47;4.33;;;-2.80;99.90;;;;;;5028634;28;20210;-91
2021/12/29 04:28:42;;;;;;;7.17;4.30;;;-2.80;99.90;;;;;;5037017;28;20208;-92
2021/12/29 04:31:13;;;;;;;9.93;5.17;;;-2.80;99.90;;;;;;5023008;28;20210;-92
2021/12/29 04:33:44;;;;;;;7.47;4.90;;;-2.80;99.90;;;;;;5023211;28;20241;-92
2021/12/29 04:36:15;;;;;;;12.60;6.63;;;-2.80;99.90;;;;;;5026195;28;20244;-93
2021/12/29 04:38:49;;;;;;;9.70;5.87;;;-2.80;99.90;;;;;;5035278;28;20206;-92
2021/12/29 04:41:23;;;;;;;7.60;4.47;;;-2.80;99.90;;;;;;5032497;28;20553;-93
2021/12/29 04:43:55;;;;;;;8.27;4.93;;;-2.80;99.90;;;;;;5023254;28;20225;-91
2021/12/29 04:46:37;;;;;;;8.83;6.27;;;-2.80;99.90;;;;;;5023488;28;20690;-92
2021/12/29 04:49:13;;;;;;;10.83;5.77;;;-2.70;99.90;;;;;;5020956;28;20240;-93
2021/12/29 04:51:51;;;;;;;7.27;4.50;;;-2.80;99.90;;;;;;5020958;28;20274;-90
2021/12/29 04:54:25;;;;;;;7.87;5.00;;;-2.80;99.90;;;;;;5021473;28;20240;-92
2021/12/29 04:56:58;;;;;;;11.50;6.77;;;-2.80;99.90;;;;;;5020101;28;20265;-93
2021/12/29 04:59:30;;;;;;;8.03;4.50;;;-2.80;99.90;;;;;;5023623;28;20217;-91
2021/12/29 05:02:03;;;;;;;5.43;3.97;;;-2.80;99.90;;;;;;5023483;28;20216;-92
2021/12/29 05:04:47;;;;;;;8.63;5.07;;;-2.90;99.90;;;;;;5026883;28;20272;-92
2021/12/29 05:10:09;;;;;;;9.57;5.63;;;-2.90;99.90;;;;;;5024510;28;20650;-94
2021/12/29 05:12:41;;;;;;;8.43;4.70;;;-2.80;99.90;;;;;;5022645;28;20209;-92
2021/12/29 05:15:12;;;;;;;6.10;3.70;;;-2.80;99.90;;;;;;5004338;28;20230;-93
2021/12/29 05:17:49;;;;;;;6.00;4.13;;;-2.80;99.90;;;;;;5016513;28;20207;-93
2021/12/29 05:20:22;;;;;;;13.03;6.67;;;-2.80;99.90;;;;;;5016559;28;20205;-93
2021/12/29 05:22:53;;;;;;;15.73;7.23;;;-2.80;99.90;;;;;;5015883;28;20206;-93
2021/12/29 05:25:26;;;;;;;9.13;5.30;;;-2.80;99.90;;;;;;4998133;28;20234;-93
2021/12/29 05:27:59;;;;;;;5.10;3.73;;;-2.80;99.90;;;;;;4991539;28;20203;-93
2021/12/29 05:30:31;;;;;;;5.57;3.53;;;-2.90;99.90;;;;;;4988317;28;20203;-92
2021/12/29 05:33:02;;;;;;;15.50;7.23;;;-2.80;99.90;;;;;;5004224;28;20208;-92
2021/12/29 05:35:33;;;;;;;9.97;4.87;;;-2.80;99.90;;;;;;5003934;28;20249;-93
2021/12/29 05:38:05;;;;;;;6.70;3.43;;;-2.80;99.90;;;;;;5007741;28;20214;-91
2021/12/29 05:40:39;;;;;;;4.83;2.73;;;-2.80;99.90;;;;;;5003103;28;20222;-92
2021/12/29 05:43:10;;;;;;;7.50;3.40;;;-2.80;99.90;;;;;;5002522;28;20206;-93
2021/12/29 05:45:42;;;;;;;7.30;3.13;;;-2.80;99.90;;;;;;4998637;28;20257;-93
2021/12/29 05:48:14;;;;;;;4.93;3.47;;;-2.80;99.90;;;;;;4984330;28;20298;-93
2021/12/29 05:50:45;;;;;;;6.27;3.50;;;-2.80;99.90;;;;;;4992456;28;20238;-92
2021/12/29 05:53:17;;;;;;;5.03;2.83;;;-2.90;99.90;;;;;;4984948;28;20250;-92
2021/12/29 05:55:54;;;;;;;6.53;3.00;;;-2.80;99.90;;;;;;4985011;28;20261;-92
2021/12/29 05:58:26;;;;;;;6.07;3.50;;;-2.80;99.90;;;;;;4985459;28;20207;-92
2021/12/29 06:00:58;;;;;;;5.73;3.30;;;-2.80;99.90;;;;;;4985681;28;20217;-92
2021/12/29 06:03:31;;;;;;;5.87;3.50;;;-2.80;99.90;;;;;;4988220;28;20572;-92
2021/12/29 06:06:05;;;;;;;5.10;3.33;;;-2.80;99.90;;;;;;4986929;28;20222;-92
2021/12/29 06:08:38;;;;;;;6.13;3.37;;;-2.90;99.90;;;;;;4987739;28;20345;-93
2021/12/29 06:11:12;;;;;;;6.07;3.37;;;-2.90;99.90;;;;;;4989398;28;20219;-92
2021/12/29 06:13:43;;;;;;;5.87;3.37;;;-2.80;99.90;;;;;;4998316;28;20191;-93
2021/12/29 06:16:17;;;;;;;6.33;2.97;;;-2.90;99.90;;;;;;4997223;28;20245;-92
2021/12/29 06:18:49;;;;;;;4.57;3.13;;;-2.80;99.90;;;;;;4997372;28;20210;-92
2021/12/29 06:21:20;;;;;;;5.40;3.20;;;-2.90;99.90;;;;;;4983071;28;20211;-88
2021/12/29 06:23:52;;;;;;;4.53;3.00;;;-2.80;99.90;;;;;;4983590;28;20255;-93
2021/12/29 06:26:29;;;;;;;6.70;3.40;;;-2.80;99.90;;;;;;4982841;28;20242;-92
2021/12/29 06:29:01;;;;;;;6.87;4.13;;;-2.80;99.90;;;;;;4982015;28;20631;-92
2021/12/29 06:31:34;;;;;;;5.33;3.43;;;-2.80;99.90;;;;;;4980003;28;20682;-93
2021/12/29 06:34:06;;;;;;;7.50;3.90;;;-2.70;99.90;;;;;;4981435;28;20264;-92
2021/12/29 06:36:49;;;;;;;7.80;4.30;;;-2.80;99.90;;;;;;4978722;28;20270;-92
2021/12/29 06:39:22;;;;;;;6.50;4.30;;;-2.80;99.90;;;;;;4978283;28;20238;-92
2021/12/29 06:41:56;;;;;;;5.80;3.30;;;-2.80;99.90;;;;;;4979464;28;20207;-92
2021/12/29 06:44:33;;;;;;;6.03;3.70;;;-2.80;99.90;;;;;;4981356;28;20221;-93
2021/12/29 06:47:05;;;;;;;8.07;4.27;;;-2.90;99.90;;;;;;4979372;28;20295;-93
2021/12/29 06:49:37;;;;;;;6.77;4.10;;;-2.90;99.90;;;;;;4978145;28;20211;-93
2021/12/29 06:52:10;;;;;;;5.63;3.60;;;-2.90;99.90;;;;;;4978524;28;20210;-92
2021/12/29 06:54:44;;;;;;;7.07;4.10;;;-2.90;99.90;;;;;;4979019;28;20235;-93
2021/12/29 06:57:17;;;;;;;9.20;4.43;;;-2.90;99.90;;;;;;4978040;28;20211;-92
2021/12/29 06:59:51;;;;;;;7.17;3.97;;;-2.90;99.90;;;;;;4980673;28;20215;-93
2021/12/29 07:02:23;;;;;;;6.13;3.97;;;-2.90;99.90;;;;;;4979698;28;20262;-91
2021/12/29 07:04:54;;;;;;;7.90;4.23;;;-2.90;99.90;;;;;;4977120;28;20203;-93
2021/12/29 07:07:26;;;;;;;7.90;4.70;;;-2.90;99.90;;;;;;4977673;28;20238;-92
2021/12/29 07:09:57;;;;;;;8.03;4.23;;;-2.90;99.90;;;;;;4977803;28;20203;-92
2021/12/29 07:12:31;;;;;;;6.43;3.67;;;-2.90;99.90;;;;;;4979125;28;20222;-92
2021/12/29 07:15:02;;;;;;;6.30;3.60;;;-2.90;99.90;;;;;;4977240;28;20333;-92
2021/12/29 07:17:33;;;;;;;7.33;4.20;;;-2.90;99.90;;;;;;4981784;28;20207;-93
2021/12/29 07:20:06;;;;;;;9.77;4.13;;;-2.90;99.90;;;;;;4989697;28;20273;-94
2021/12/29 07:22:37;;;;;;;8.13;4.07;;;-2.90;99.90;;;;;;4990310;28;20223;-92
2021/12/29 07:25:10;;;;;;;7.10;3.73;;;-2.90;99.90;;;;;;4990041;28;20215;-92
2021/12/29 07:27:43;;;;;;;6.30;3.83;;;-2.90;99.90;;;;;;4986451;28;20262;-92
2021/12/29 07:30:15;;;;;;;6.50;3.83;;;-2.90;99.90;;;;;;4991890;28;20206;-90
2021/12/29 07:32:46;;;;;;;6.27;3.23;;;-2.90;99.90;;;;;;5009041;28;20226;-90
2021/12/29 07:35:17;;;;;;;7.67;4.00;;;-2.90;99.90;;;;;;5010041;28;20261;-90
2021/12/29 07:37:51;;;;;;;8.20;4.20;;;-2.90;99.90;;;;;;5008934;28;20221;-92
2021/12/29 07:40:22;;;;;;;6.30;3.20;;;-2.90;99.90;;;;;;5014257;28;20212;-91
2021/12/29 07:42:57;;;;;;;9.93;3.37;;;-2.90;99.90;;;;;;5017375;28;20237;-93
2021/12/29 07:45:29;;;;;;;6.00;3.70;;;-2.90;99.90;;;;;;5014331;28;20198;-93
2021/12/29 07:48:03;;;;;;;5.50;3.57;;;-2.80;99.90;;;;;;5012891;28;20226;-94
2021/12/29 07:50:34;;;;;;;7.60;3.33;;;-2.80;99.90;;;;;;5011011;28;20377;-92
2021/12/29 07:53:07;;;;;;;5.93;3.60;;;-2.90;99.90;;;;;;5010989;28;20213;-92
2021/12/29 07:55:38;;;;;;;5.37;3.40;;;-2.90;99.90;;;;;;5010979;28;20268;-92
2021/12/29 07:58:12;;;;;;;5.87;3.53;;;-2.90;99.90;;;;;;5009689;28;20549;-93
2021/12/29 08:00:46;;;;;;;7.87;4.00;;;-2.90;99.90;;;;;;4996296;28;20209;-93
2021/12/29 08:03:17;;;;;;;8.43;3.13;;;-2.90;99.90;;;;;;4997896;28;20210;-94
2021/12/29 08:05:49;;;;;;;4.43;3.03;;;-2.90;99.90;;;;;;4997860;28;20214;-93
2021/12/29 08:08:21;;;;;;;6.67;3.57;;;-2.90;99.90;;;;;;4996145;28;20308;-94
2021/12/29 08:10:53;;;;;;;9.57;4.10;;;-2.90;99.90;;;;;;4997483;28;20674;-92
2021/12/29 08:13:27;;;;;;;7.40;3.57;;;-2.90;99.90;;;;;;4996935;28;20217;-92
2021/12/29 08:15:58;;;;;;;5.97;3.10;;;-2.80;99.90;;;;;;4997130;28;20785;-93
2021/12/29 08:18:29;;;;;;;6.17;2.57;;;-2.80;99.90;;;;;;4995929;28;20202;-93
2021/12/29 08:21:01;;;;;;;6.33;3.13;;;-2.80;99.90;;;;;;4996201;28;20246;-93
2021/12/29 08:23:35;;;;;;;5.23;3.40;;;-2.80;99.90;;;;;;4996835;28;20229;-93
2021/12/29 08:26:06;;;;;;;5.30;2.20;;;-2.80;99.90;;;;;;4996577;28;20249;-92
2021/12/29 08:28:40;;;;;;;4.97;3.13;;;-2.80;99.90;;;;;;4996324;28;20289;-93
2021/12/29 08:31:15;;;;;;;7.10;3.50;;;-2.80;99.90;;;;;;4997029;28;20214;-94
2021/12/29 08:33:47;;;;;;;4.37;2.63;;;-2.90;99.90;;;;;;4996749;28;20233;-92
2021/12/29 08:36:18;;;;;;;6.63;2.80;;;-2.80;99.90;;;;;;4996126;28;20227;-93
2021/12/29 08:38:51;;;;;;;6.90;2.77;;;-2.90;99.90;;;;;;4996493;28;20213;-90
2021/12/29 08:41:23;;;;;;;4.73;2.77;;;-2.90;99.90;;;;;;4996951;28;20225;-91
2021/12/29 08:43:56;;;;;;;4.37;2.87;;;-2.80;99.90;;;;;;4999176;28;20211;-91
2021/12/29 08:46:30;;;;;;;6.87;2.37;;;-2.80;99.90;;;;;;4999940;28;20269;-93
2021/12/29 08:49:01;;;;;;;4.97;2.53;;;-2.80;99.90;;;;;;4999158;28;20214;-93
2021/12/29 08:51:33;;;;;;;4.10;2.37;;;-2.80;99.90;;;;;;5001262;28;20650;-93
2021/12/29 08:54:04;;;;;;;4.07;2.57;;;-2.80;99.90;;;;;;4999716;28;20305;-93
2021/12/29 08:56:36;;;;;;;5.13;2.90;;;-2.80;99.90;;;;;;4999172;28;20268;-93
2021/12/29 08:59:12;;;;;;;7.10;2.33;;;-2.80;99.90;;;;;;5002113;28;20217;-91
2021/12/29 09:01:45;;;;;;;5.67;2.30;;;-2.80;99.90;;;;;;5027110;23;20225;-92
2021/12/29 09:04:17;;;;;;;5.10;2.30;;;-2.80;99.90;;;;;;4984108;28;20316;-92
2021/12/29 09:06:50;;;;;;;4.67;1.97;;;-2.80;99.90;;;;;;4994573;28;20215;-92
2021/12/29 09:09:21;;;;;;;6.80;2.90;;;-2.80;99.90;;;;;;4994542;28;20211;-91
2021/12/29 09:11:53;;;;;;;5.80;2.50;;;-2.80;99.90;;;;;;4997618;28;20211;-91
2021/12/29 09:14:27;;;;;;;5.47;2.43;;;-2.90;99.90;;;;;;4995317;28;20647;-91
2021/12/29 09:16:59;;;;;;;7.10;2.67;;;-2.80;99.90;;;;;;4982660;28;20293;-91
2021/12/29 09:19:33;;;;;;;3.93;2.40;;;-2.80;99.90;;;;;;4980506;28;20237;-92
2021/12/29 09:22:05;;;;;;;4.70;1.87;;;-2.80;99.90;;;;;;4981962;28;20230;-93
2021/12/29 09:24:37;;;;;;;5.43;2.60;;;-2.80;99.90;;;;;;4988627;28;20218;-93
2021/12/29 09:27:08;;;;;;;6.73;2.60;;;-2.80;99.90;;;;;;4987273;28;20208;-91
2021/12/29 09:29:42;;;;;;;3.13;2.10;;;-2.80;99.90;;;;;;4989163;28;20226;-92
2021/12/29 09:32:15;;;;;;;3.97;2.03;;;-2.70;99.90;;;;;;4991549;28;20202;-91
2021/12/29 09:34:47;;;;;;;4.23;2.00;;;-2.70;99.90;;;;;;4990865;28;20234;-92
2021/12/29 09:37:18;;;;;;;5.87;3.30;;;-2.70;99.90;;;;;;4991061;28;20239;-92
2021/12/29 09:39:50;;;;;;;5.03;3.27;;;-2.70;99.90;;;;;;4994539;28;20235;-92
2021/12/29 09:42:24;;;;;;;6.80;3.27;;;-2.80;99.90;;;;;;4996646;28;20215;-92
2021/12/29 09:44:59;;;;;;;6.90;2.90;;;-2.90;99.90;;;;;;4997830;28;20242;-90
2021/12/29 09:47:30;;;;;;;4.97;2.50;;;-2.90;99.90;;;;;;4996474;28;20298;-92
2021/12/29 09:50:01;;;;;;;4.77;2.40;;;-3.00;99.90;;;;;;4997303;28;20235;-91
2021/12/29 09:52:33;;;;;;;5.07;2.43;;;-3.00;99.90;;;;;;4996318;28;20191;-91
2021/12/29 09:55:09;;;;;;;9.00;3.40;;;-3.00;99.90;;;;;;4998464;28;20233;-92
2021/12/29 09:57:45;;;;;;;6.90;3.33;;;-3.00;99.90;;;;;;4996570;28;20226;-93
2021/12/29 10:00:27;;;;;;;6.33;2.60;;;-3.10;99.90;;;;;;4997788;28;20200;-93
2021/12/29 10:03:02;;;;;;;5.77;2.80;;;-3.20;99.90;;;;;;4998493;28;20262;-93
2021/12/29 10:05:34;;;;;;;4.73;2.73;;;-3.20;99.90;;;;;;4997401;28;20207;-91
2021/12/29 10:08:07;;;;;;;7.20;3.27;;;-3.20;99.90;;;;;;4992972;28;20207;-92
2021/12/29 10:10:44;;;;;;;7.70;3.40;;;-3.20;99.90;;;;;;4995092;28;20199;-91
2021/12/29 10:13:17;;;;;;;5.20;3.20;;;-3.20;99.90;;;;;;4990978;28;20238;-92
2021/12/29 10:15:55;;;;;;;4.40;2.83;;;-3.20;99.90;;;;;;4987010;28;20211;-92
2021/12/29 10:18:29;;;;;;;4.63;2.57;;;-3.20;99.90;;;;;;4981083;28;20262;-91
2021/12/29 10:21:03;;;;;;;4.67;2.70;;;-3.20;99.90;;;;;;4980853;28;20238;-91
2021/12/29 10:23:36;;;;;;;4.60;2.13;;;-3.30;99.90;;;;;;4982076;28;20214;-92
2021/12/29 10:26:09;;;;;;;6.53;2.23;;;-3.30;99.90;;;;;;4980096;28;20266;-92
2021/12/29 10:28:42;;;;;;;5.57;2.37;;;-3.20;99.90;;;;;;4980317;28;20229;-92
2021/12/29 10:31:17;;;;;;;7.47;2.70;;;-3.20;99.90;;;;;;4980613;28;20207;-92
2021/12/29 10:33:52;;;;;;;6.47;2.90;;;-3.20;99.90;;;;;;4982905;28;20306;-93
2021/12/29 10:36:27;;;;;;;4.63;2.27;;;-3.20;99.90;;;;;;4979405;28;20215;-92
2021/12/29 10:39:01;;;;;;;6.50;3.27;;;-3.20;99.90;;;;;;4980457;28;20273;-92
2021/12/29 10:41:34;;;;;;;8.33;3.80;;;-3.10;99.90;;;;;;4979265;28;20291;-92
2021/12/29 10:44:07;;;;;;;5.37;2.90;;;-3.10;99.90;;;;;;4979425;28;20590;-91
2021/12/29 10:46:40;;;;;;;9.23;3.47;;;-3.10;99.90;;;;;;4981607;28;20218;-92
2021/12/29 10:49:13;;;;;;;13.63;4.43;;;-3.00;99.90;;;;;;4979441;28;20225;-92
2021/12/29 10:51:46;;;;;;;7.20;3.90;;;-3.00;99.90;;;;;;4979715;28;20211;-92
2021/12/29 10:54:20;;;;;;;7.80;2.83;;;-3.00;99.90;;;;;;4979725;28;20232;-92
2021/12/29 10:57:05;;;;;;;6.53;3.53;;;-3.00;99.90;;;;;;4979831;28;20214;-93
2021/12/29 10:59:41;;;;;;;7.83;3.17;;;-3.10;99.90;;;;;;4979912;28;20261;-91
2021/12/29 11:02:14;;;;;;;5.13;2.80;;;-3.10;99.90;;;;;;4980281;28;20226;-91
2021/12/29 11:04:56;;;;;;;3.63;2.30;;;-3.10;99.90;;;;;;4979272;28;20207;-92
2021/12/29 11:07:28;;;;;;;3.40;2.23;;;-3.10;99.90;;;;;;4978632;28;20218;-93
2021/12/29 11:10:11;;;;;;;5.40;3.00;;;-3.10;99.90;;;;;;4980240;28;20242;-91
2021/12/29 11:12:49;;;;;;;5.73;2.63;;;-3.10;99.90;;;;;;4981335;28;20211;-94
2021/12/29 11:15:23;;;;;;;5.40;2.87;;;-3.10;99.90;;;;;;4998153;28;20682;-93
2021/12/29 11:18:03;;;;;;;5.20;2.60;;;-3.10;99.90;;;;;;4998206;28;20804;-93
2021/12/29 11:20:41;;;;;;;6.57;2.70;;;-3.10;99.90;;;;;;4998340;28;20270;-92
2021/12/29 11:23:14;;;;;;;4.97;2.73;;;-3.20;99.90;;;;;;4997704;28;20241;-92
2021/12/29 11:25:47;;;;;;;3.40;2.43;;;-3.20;99.90;;;;;;4997379;28;20209;-92
2021/12/29 11:28:27;;;;;;;3.97;2.17;;;-3.20;99.90;;;;;;4997865;28;20229;-92
2021/12/29 11:31:02;;;;;;;5.73;3.50;;;-3.30;99.90;;;;;;4997568;28;20210;-91
2021/12/29 11:33:37;;;;;;;4.80;2.83;;;-3.30;99.90;;;;;;4998131;28;20209;-92
2021/12/29 11:36:08;;;;;;;6.23;2.90;;;-3.30;99.90;;;;;;4997931;28;20214;-92
2021/12/29 11:38:40;;;;;;;4.30;2.27;;;-3.40;99.90;;;;;;4998184;28;20257;-91
2021/12/29 11:41:15;;;;;;;3.87;2.40;;;-3.40;99.90;;;;;;4998289;28;20210;-93
2021/12/29 11:43:51;;;;;;;9.63;3.80;;;-3.50;99.90;;;;;;4997575;28;20269;-90
2021/12/29 11:46:24;;;;;;;5.13;2.20;;;-3.60;99.90;;;;;;5005674;28;20229;-90
2021/12/29 11:48:57;;;;;;;6.90;2.50;;;-3.70;99.90;;;;;;5016338;28;20194;-92
2021/12/29 11:51:37;;;;;;;6.37;2.30;;;-3.70;99.90;;;;;;5016325;28;20237;-90
2021/12/29 11:54:15;;;;;;;10.03;3.23;;;-3.80;99.90;;;;;;5004459;28;20261;-90
2021/12/29 11:56:47;;;;;;;8.43;2.93;;;-3.90;99.90;;;;;;4981695;28;20214;-88
2021/12/29 11:59:18;;;;;;;3.30;1.97;;;-3.90;99.90;;;;;;4980671;28;20239;-92
2021/12/29 12:02:00;;;;;;;8.20;3.13;;;-4.00;99.90;;;;;;4981056;28;20309;-92
2021/12/29 12:04:34;;;;;;;6.57;2.67;;;-4.00;99.90;;;;;;4977954;28;20577;-93
2021/12/29 12:07:10;;;;;;;2.97;1.70;;;-4.10;99.90;;;;;;4976730;28;20241;-92
2021/12/29 12:09:49;;;;;;;9.03;3.67;;;-4.20;99.90;;;;;;4977307;28;20201;-92
2021/12/29 12:12:22;;;;;;;22.87;9.27;;;-4.20;99.90;;;;;;4978398;28;20258;-91
2021/12/29 12:14:57;;;;;;;10.67;4.83;;;-4.20;99.90;;;;;;4980216;28;20206;-91
2021/12/29 12:17:29;;;;;;;12.77;6.07;;;-4.30;99.90;;;;;;4992529;28;20255;-91
2021/12/29 12:20:07;;;;;;;9.50;4.57;;;-4.30;99.90;;;;;;4997448;28;20214;-90
2021/12/29 12:22:48;;;;;;;11.47;4.30;;;-4.40;99.90;;;;;;4995259;28;20209;-89
2021/12/29 12:25:26;;;;;;;6.97;3.53;;;-4.40;99.90;;;;;;4993443;28;20207;-90
2021/12/29 12:28:02;;;;;;;15.70;6.00;;;-4.40;99.90;;;;;;4996842;28;20207;-90
2021/12/29 12:30:42;;;;;;;34.87;13.43;;;-4.40;99.90;;;;;;4992774;28;20257;-90
2021/12/29 12:33:15;;;;;;;23.80;10.63;;;-4.50;99.90;;;;;;4983849;28;20238;-93
2021/12/29 12:35:56;;;;;;;9.40;3.40;;;-4.50;99.90;;;;;;4983834;28;20203;-92
2021/12/29 12:38:33;;;;;;;4.83;1.60;;;-4.50;99.90;;;;;;4981353;28;20247;-91
2021/12/29 12:41:08;;;;;;;2.80;1.80;;;-4.60;99.90;;;;;;4981481;28;20669;-91
2021/12/29 12:43:52;;;;;;;12.13;4.17;;;-4.70;99.90;;;;;;4992261;28;20264;-91
2021/12/29 12:46:30;;;;;;;14.10;5.67;;;-4.70;99.90;;;;;;5001386;28;20202;-92
2021/12/29 12:49:16;;;;;;;7.10;2.80;;;-4.80;99.90;;;;;;5001790;28;20293;-92
2021/12/29 12:52:02;;;;;;;4.83;2.30;;;-4.80;99.90;;;;;;5000703;28;20612;-92
2021/12/29 12:54:39;;;;;;;8.67;2.00;;;-4.90;99.90;;;;;;5003620;28;20208;-91
2021/12/29 12:57:10;;;;;;;5.77;2.17;;;-4.90;99.90;;;;;;5002140;28;20248;-91
2021/12/29 12:59:43;;;;;;;6.17;1.90;;;-5.00;99.90;;;;;;5002440;28;20236;-90
2021/12/29 13:02:17;;;;;;;5.30;2.33;;;-5.00;99.90;;;;;;5002297;28;20268;-90
2021/12/29 13:05:09;;;;;;;4.13;2.30;;;-5.10;99.90;;;;;;5003058;28;20259;-91
2021/12/29 13:07:44;;;;;;;4.47;2.20;;;-5.00;99.90;;;;;;5007626;28;20272;-91
2021/12/29 13:10:26;;;;;;;4.53;1.90;;;-5.00;99.90;;;;;;5003122;28;20206;-92
2021/12/29 13:13:00;;;;;;;6.10;2.30;;;-4.90;99.90;;;;;;5001258;28;20253;-91
2021/12/29 13:15:34;;;;;;;4.07;2.60;;;-4.90;99.90;;;;;;5001807;28;20209;-92
2021/12/29 13:18:07;;;;;;;4.77;2.10;;;-4.90;99.90;;;;;;4999470;28;20245;-91
2021/12/29 13:20:39;;;;;;;7.77;2.33;;;-5.00;99.90;;;;;;5003918;28;20212;-92
2021/12/29 13:23:17;;;;;;;5.83;2.53;;;-5.10;99.90;;;;;;5003985;28;20240;-92